sensor_id;sensor_type;location;lat;lon;timestamp;pressure;altitude;pressure_sealevel;temperature;humidity
16738;BME280;17906;47.684;10.806;2024-01-25T00:01:15;94321.78;;;3.76;nan
16738;BME280;17906;47.684;10.806;2024-01-25T00:03:43;94315.72;;;3.82;nan
16738;BME280;17906;47.684;10.806;2024-01-25T00:06:09;94321.25;;;3.80;nan
16738;BME280;17906;47.684;10.806;2024-01-25T00:08:36;94318.56;;;3.80;nan
16738;BME280;17906;47.684;10.806;2024-01-25T00:11:03;94309.09;;;3.70;nan
16738;BME280;17906;47.684;10.806;2024-01-25T00:13:30;94307.97;;;3.64;nan
16738;BME280;17906;47.684;10.806;2024-01-25T00:15:56;94312.13;;;3.67;nan
16738;BME280;17906;47.684;10.806;2024-01-25T00:18:23;94305.59;;;3.69;nan
16738;BME280;17906;47.684;10.806;2024-01-25T00:20:51;94315.19;;;3.64;nan
16738;BME280;17906;47.684;10.806;2024-01-25T00:23:18;94317.66;;;3.65;nan
16738;BME280;17906;47.684;10.806;2024-01-25T00:25:45;94325.06;;;3.63;nan
16738;BME280;17906;47.684;10.806;2024-01-25T00:28:11;94320.72;;;3.62;nan
16738;BME280;17906;47.684;10.806;2024-01-25T00:30:38;94318.03;;;3.62;nan
16738;BME280;17906;47.684;10.806;2024-01-25T00:33:05;94307.06;;;3.72;nan
16738;BME280;17906;47.684;10.806;2024-01-25T00:35:32;94298.38;;;3.70;nan
16738;BME280;17906;47.684;10.806;2024-01-25T00:38:01;94306.13;;;3.65;nan
16738;BME280;17906;47.684;10.806;2024-01-25T00:40:28;94311.00;;;3.61;nan
16738;BME280;17906;47.684;10.806;2024-01-25T00:42:55;94303.50;;;3.57;nan
16738;BME280;17906;47.684;10.806;2024-01-25T00:45:23;94309.19;;;3.53;nan
16738;BME280;17906;47.684;10.806;2024-01-25T00:47:50;94320.56;;;3.56;nan
16738;BME280;17906;47.684;10.806;2024-01-25T00:50:18;94330.72;;;3.45;nan
16738;BME280;17906;47.684;10.806;2024-01-25T00:52:46;94320.94;;;3.52;nan
16738;BME280;17906;47.684;10.806;2024-01-25T00:55:15;94325.28;;;3.53;nan
16738;BME280;17906;47.684;10.806;2024-01-25T00:57:43;94327.66;;;3.48;nan
16738;BME280;17906;47.684;10.806;2024-01-25T01:00:10;94329.19;;;3.43;nan
16738;BME280;17906;47.684;10.806;2024-01-25T01:02:41;94322.78;;;3.52;nan
16738;BME280;17906;47.684;10.806;2024-01-25T01:05:09;94318.16;;;3.46;nan
16738;BME280;17906;47.684;10.806;2024-01-25T01:07:37;94325.69;;;3.42;nan
16738;BME280;17906;47.684;10.806;2024-01-25T01:10:05;94325.03;;;3.40;nan
16738;BME280;17906;47.684;10.806;2024-01-25T01:12:34;94317.53;;;3.36;nan
16738;BME280;17906;47.684;10.806;2024-01-25T01:15:00;94319.06;;;3.30;nan
16738;BME280;17906;47.684;10.806;2024-01-25T01:17:27;94317.59;;;3.28;nan
16738;BME280;17906;47.684;10.806;2024-01-25T01:19:54;94320.13;;;3.21;nan
16738;BME280;17906;47.684;10.806;2024-01-25T01:22:21;94321.94;;;3.29;nan
16738;BME280;17906;47.684;10.806;2024-01-25T01:24:47;94313.53;;;3.32;nan
16738;BME280;17906;47.684;10.806;2024-01-25T01:27:14;94320.38;;;3.34;nan
16738;BME280;17906;47.684;10.806;2024-01-25T01:29:42;94307.06;;;3.26;nan
16738;BME280;17906;47.684;10.806;2024-01-25T01:32:08;94299.94;;;3.33;nan
16738;BME280;17906;47.684;10.806;2024-01-25T01:34:35;94279.66;;;3.39;nan
16738;BME280;17906;47.684;10.806;2024-01-25T01:37:02;94277.88;;;3.31;nan
16738;BME280;17906;47.684;10.806;2024-01-25T01:39:28;94279.66;;;3.39;nan
16738;BME280;17906;47.684;10.806;2024-01-25T01:41:55;94286.56;;;3.33;nan
16738;BME280;17906;47.684;10.806;2024-01-25T01:44:21;94280.03;;;3.36;nan
16738;BME280;17906;47.684;10.806;2024-01-25T01:46:50;94295.44;;;3.34;nan
16738;BME280;17906;47.684;10.806;2024-01-25T01:49:17;94287.69;;;3.39;nan
16738;BME280;17906;47.684;10.806;2024-01-25T01:51:44;94281.50;;;3.38;nan
16738;BME280;17906;47.684;10.806;2024-01-25T01:54:11;94286.91;;;3.30;nan
16738;BME280;17906;47.684;10.806;2024-01-25T01:56:38;94282.94;;;3.26;nan
16738;BME280;17906;47.684;10.806;2024-01-25T01:59:09;94288.41;;;3.33;nan
16738;BME280;17906;47.684;10.806;2024-01-25T02:01:35;94280.84;;;3.36;nan
16738;BME280;17906;47.684;10.806;2024-01-25T02:04:04;94275.50;;;3.36;nan
16738;BME280;17906;47.684;10.806;2024-01-25T02:06:30;94273.75;;;3.43;nan
16738;BME280;17906;47.684;10.806;2024-01-25T02:08:57;94280.63;;;3.46;nan
16738;BME280;17906;47.684;10.806;2024-01-25T02:11:25;94283.94;;;3.48;nan
16738;BME280;17906;47.684;10.806;2024-01-25T02:13:51;94280.44;;;3.47;nan
16738;BME280;17906;47.684;10.806;2024-01-25T02:16:18;94276.91;;;3.47;nan
16738;BME280;17906;47.684;10.806;2024-01-25T02:18:45;94273.09;;;3.41;nan
16738;BME280;17906;47.684;10.806;2024-01-25T02:21:13;94284.19;;;3.38;nan
16738;BME280;17906;47.684;10.806;2024-01-25T02:23:41;94282.16;;;3.40;nan
16738;BME280;17906;47.684;10.806;2024-01-25T02:26:08;94279.34;;;3.34;nan
16738;BME280;17906;47.684;10.806;2024-01-25T02:28:35;94270.97;;;3.37;nan
16738;BME280;17906;47.684;10.806;2024-01-25T02:31:02;94267.94;;;3.40;nan
16738;BME280;17906;47.684;10.806;2024-01-25T02:33:29;94256.56;;;3.38;nan
16738;BME280;17906;47.684;10.806;2024-01-25T02:35:56;94254.34;;;3.41;nan
16738;BME280;17906;47.684;10.806;2024-01-25T02:38:22;94264.69;;;3.44;nan
16738;BME280;17906;47.684;10.806;2024-01-25T02:40:51;94266.25;;;3.39;nan
16738;BME280;17906;47.684;10.806;2024-01-25T02:43:18;94276.97;;;3.39;nan
16738;BME280;17906;47.684;10.806;2024-01-25T02:45:45;94266.63;;;3.36;nan
16738;BME280;17906;47.684;10.806;2024-01-25T02:48:13;94275.31;;;3.38;nan
16738;BME280;17906;47.684;10.806;2024-01-25T02:50:40;94278.19;;;3.36;nan
16738;BME280;17906;47.684;10.806;2024-01-25T02:53:06;94278.03;;;3.30;nan
16738;BME280;17906;47.684;10.806;2024-01-25T02:55:33;94273.00;;;3.35;nan
16738;BME280;17906;47.684;10.806;2024-01-25T02:58:01;94272.81;;;3.36;nan
16738;BME280;17906;47.684;10.806;2024-01-25T03:00:28;94269.53;;;3.26;nan
16738;BME280;17906;47.684;10.806;2024-01-25T03:02:54;94270.00;;;3.30;nan
16738;BME280;17906;47.684;10.806;2024-01-25T03:05:21;94265.44;;;3.38;nan
16738;BME280;17906;47.684;10.806;2024-01-25T03:07:47;94270.53;;;3.48;nan
16738;BME280;17906;47.684;10.806;2024-01-25T03:10:14;94257.47;;;3.45;nan
16738;BME280;17906;47.684;10.806;2024-01-25T03:12:41;94257.16;;;3.48;nan
16738;BME280;17906;47.684;10.806;2024-01-25T03:15:10;94266.66;;;3.50;nan
16738;BME280;17906;47.684;10.806;2024-01-25T03:17:37;94276.91;;;3.47;nan
16738;BME280;17906;47.684;10.806;2024-01-25T03:20:05;94273.31;;;3.55;nan
16738;BME280;17906;47.684;10.806;2024-01-25T03:22:32;94271.19;;;3.50;nan
16738;BME280;17906;47.684;10.806;2024-01-25T03:24:59;94263.97;;;3.50;nan
16738;BME280;17906;47.684;10.806;2024-01-25T03:27:25;94245.69;;;3.54;nan
16738;BME280;17906;47.684;10.806;2024-01-25T03:29:52;94247.25;;;3.48;nan
16738;BME280;17906;47.684;10.806;2024-01-25T03:32:20;94243.19;;;3.52;nan
16738;BME280;17906;47.684;10.806;2024-01-25T03:34:46;94252.81;;;3.47;nan
16738;BME280;17906;47.684;10.806;2024-01-25T03:37:13;94257.03;;;3.41;nan
16738;BME280;17906;47.684;10.806;2024-01-25T03:39:40;94259.06;;;3.39;nan
16738;BME280;17906;47.684;10.806;2024-01-25T03:42:06;94254.47;;;3.48;nan
16738;BME280;17906;47.684;10.806;2024-01-25T03:44:33;94272.59;;;3.46;nan
16738;BME280;17906;47.684;10.806;2024-01-25T03:46:59;94263.75;;;3.37;nan
16738;BME280;17906;47.684;10.806;2024-01-25T03:49:27;94247.88;;;3.36;nan
16738;BME280;17906;47.684;10.806;2024-01-25T03:51:54;94265.47;;;3.30;nan
16738;BME280;17906;47.684;10.806;2024-01-25T03:54:21;94283.41;;;3.30;nan
16738;BME280;17906;47.684;10.806;2024-01-25T03:56:47;94271.16;;;3.35;nan
16738;BME280;17906;47.684;10.806;2024-01-25T03:59:14;94268.09;;;3.38;nan
16738;BME280;17906;47.684;10.806;2024-01-25T04:01:42;94268.09;;;3.38;nan
16738;BME280;17906;47.684;10.806;2024-01-25T04:04:09;94268.56;;;3.42;nan
16738;BME280;17906;47.684;10.806;2024-01-25T04:06:38;94287.22;;;3.35;nan
16738;BME280;17906;47.684;10.806;2024-01-25T04:09:05;94288.13;;;3.28;nan
16738;BME280;17906;47.684;10.806;2024-01-25T04:11:31;94285.44;;;3.28;nan
16738;BME280;17906;47.684;10.806;2024-01-25T04:13:58;94286.91;;;3.30;nan
16738;BME280;17906;47.684;10.806;2024-01-25T04:16:26;94292.66;;;3.27;nan
16738;BME280;17906;47.684;10.806;2024-01-25T04:18:53;94292.69;;;3.19;nan
16738;BME280;17906;47.684;10.806;2024-01-25T04:21:18;94284.41;;;3.29;nan
16738;BME280;17906;47.684;10.806;2024-01-25T04:23:46;94278.50;;;3.33;nan
16738;BME280;17906;47.684;10.806;2024-01-25T04:26:14;94281.09;;;3.27;nan
16738;BME280;17906;47.684;10.806;2024-01-25T04:28:40;94281.97;;;3.19;nan
16738;BME280;17906;47.684;10.806;2024-01-25T04:31:07;94274.59;;;3.21;nan
16738;BME280;17906;47.684;10.806;2024-01-25T04:33:34;94291.16;;;3.25;nan
16738;BME280;17906;47.684;10.806;2024-01-25T04:36:01;94287.78;;;3.22;nan
16738;BME280;17906;47.684;10.806;2024-01-25T04:38:27;94300.34;;;3.22;nan
16738;BME280;17906;47.684;10.806;2024-01-25T04:40:55;94307.56;;;3.21;nan
16738;BME280;17906;47.684;10.806;2024-01-25T04:43:21;94295.38;;;3.19;nan
16738;BME280;17906;47.684;10.806;2024-01-25T04:45:48;94308.25;;;3.23;nan
16738;BME280;17906;47.684;10.806;2024-01-25T04:48:15;94305.56;;;3.23;nan
16738;BME280;17906;47.684;10.806;2024-01-25T04:50:42;94297.41;;;3.17;nan
16738;BME280;17906;47.684;10.806;2024-01-25T04:53:08;94300.53;;;3.20;nan
16738;BME280;17906;47.684;10.806;2024-01-25T04:55:35;94304.59;;;3.16;nan
16738;BME280;17906;47.684;10.806;2024-01-25T04:58:03;94296.19;;;3.19;nan
16738;BME280;17906;47.684;10.806;2024-01-25T05:00:30;94308.13;;;3.17;nan
16738;BME280;17906;47.684;10.806;2024-01-25T05:02:57;94314.13;;;3.19;nan
16738;BME280;17906;47.684;10.806;2024-01-25T05:05:23;94319.66;;;3.17;nan
16738;BME280;17906;47.684;10.806;2024-01-25T05:07:50;94316.50;;;3.14;nan
16738;BME280;17906;47.684;10.806;2024-01-25T05:10:16;94322.34;;;3.17;nan
16738;BME280;17906;47.684;10.806;2024-01-25T05:12:43;94317.53;;;3.13;nan
16738;BME280;17906;47.684;10.806;2024-01-25T05:15:11;94319.34;;;3.12;nan
16738;BME280;17906;47.684;10.806;2024-01-25T05:17:38;94318.50;;;3.12;nan
16738;BME280;17906;47.684;10.806;2024-01-25T05:20:06;94324.47;;;3.22;nan
16738;BME280;17906;47.684;10.806;2024-01-25T05:22:33;94321.91;;;3.06;nan
16738;BME280;17906;47.684;10.806;2024-01-25T05:25:05;94326.44;;;3.05;nan
16738;BME280;17906;47.684;10.806;2024-01-25T05:27:33;94326.59;;;3.04;nan
16738;BME280;17906;47.684;10.806;2024-01-25T05:30:00;94331.91;;;3.12;nan
16738;BME280;17906;47.684;10.806;2024-01-25T05:32:28;94337.25;;;3.12;nan
16738;BME280;17906;47.684;10.806;2024-01-25T05:34:55;94335.25;;;3.14;nan
16738;BME280;17906;47.684;10.806;2024-01-25T05:37:22;94338.22;;;3.19;nan
16738;BME280;17906;47.684;10.806;2024-01-25T05:39:48;94337.25;;;3.12;nan
16738;BME280;17906;47.684;10.806;2024-01-25T05:42:15;94348.16;;;3.10;nan
16738;BME280;17906;47.684;10.806;2024-01-25T05:44:41;94337.75;;;3.15;nan
16738;BME280;17906;47.684;10.806;2024-01-25T05:47:08;94345.16;;;3.13;nan
16738;BME280;17906;47.684;10.806;2024-01-25T05:49:36;94343.31;;;3.14;nan
16738;BME280;17906;47.684;10.806;2024-01-25T05:52:03;94344.44;;;3.19;nan
16738;BME280;17906;47.684;10.806;2024-01-25T05:54:29;94350.97;;;3.17;nan
16738;BME280;17906;47.684;10.806;2024-01-25T05:56:56;94353.00;;;3.15;nan
16738;BME280;17906;47.684;10.806;2024-01-25T05:59:23;94349.31;;;3.16;nan
16738;BME280;17906;47.684;10.806;2024-01-25T06:01:49;94349.66;;;3.13;nan
16738;BME280;17906;47.684;10.806;2024-01-25T06:04:16;94344.44;;;3.19;nan
16738;BME280;17906;47.684;10.806;2024-01-25T06:06:44;94355.69;;;3.15;nan
16738;BME280;17906;47.684;10.806;2024-01-25T06:09:10;94361.38;;;3.12;nan
16738;BME280;17906;47.684;10.806;2024-01-25T06:11:37;94372.63;;;3.07;nan
16738;BME280;17906;47.684;10.806;2024-01-25T06:14:04;94363.91;;;3.13;nan
16738;BME280;17906;47.684;10.806;2024-01-25T06:16:31;94364.38;;;3.17;nan
16738;BME280;17906;47.684;10.806;2024-01-25T06:18:58;94364.72;;;3.14;nan
16738;BME280;17906;47.684;10.806;2024-01-25T06:21:25;94372.59;;;3.15;nan
16738;BME280;17906;47.684;10.806;2024-01-25T06:23:53;94378.78;;;3.16;nan
16738;BME280;17906;47.684;10.806;2024-01-25T06:26:19;94376.78;;;3.10;nan
16738;BME280;17906;47.684;10.806;2024-01-25T06:28:46;94384.81;;;3.10;nan
16738;BME280;17906;47.684;10.806;2024-01-25T06:31:13;94380.66;;;3.07;nan
16738;BME280;17906;47.684;10.806;2024-01-25T06:33:39;94386.00;;;3.07;nan
16738;BME280;17906;47.684;10.806;2024-01-25T06:36:07;94392.84;;;3.10;nan
16738;BME280;17906;47.684;10.806;2024-01-25T06:38:34;94398.88;;;3.12;nan
16738;BME280;17906;47.684;10.806;2024-01-25T06:41:03;94399.06;;;3.10;nan
16738;BME280;17906;47.684;10.806;2024-01-25T06:43:29;94412.97;;;3.06;nan
16738;BME280;17906;47.684;10.806;2024-01-25T06:45:56;94417.00;;;3.02;nan
16738;BME280;17906;47.684;10.806;2024-01-25T06:48:22;94422.22;;;3.03;nan
16738;BME280;17906;47.684;10.806;2024-01-25T06:50:49;94426.41;;;2.98;nan
16738;BME280;17906;47.684;10.806;2024-01-25T06:53:16;94424.06;;;2.94;nan
16738;BME280;17906;47.684;10.806;2024-01-25T06:55:43;94432.84;;;2.80;nan
16738;BME280;17906;47.684;10.806;2024-01-25T06:58:10;94427.44;;;2.88;nan
16738;BME280;17906;47.684;10.806;2024-01-25T07:00:38;94424.56;;;2.98;nan
16738;BME280;17906;47.684;10.806;2024-01-25T07:03:07;94441.47;;;2.90;nan
16738;BME280;17906;47.684;10.806;2024-01-25T07:05:33;94437.31;;;2.88;nan
16738;BME280;17906;47.684;10.806;2024-01-25T07:08:01;94441.34;;;2.76;nan
16738;BME280;17906;47.684;10.806;2024-01-25T07:10:28;94447.25;;;2.71;nan
16738;BME280;17906;47.684;10.806;2024-01-25T07:12:54;94453.72;;;2.77;nan
16738;BME280;17906;47.684;10.806;2024-01-25T07:15:22;94453.91;;;2.75;nan
16738;BME280;17906;47.684;10.806;2024-01-25T07:17:49;94454.25;;;2.72;nan
16738;BME280;17906;47.684;10.806;2024-01-25T07:20:15;94455.59;;;2.68;nan
16738;BME280;17906;47.684;10.806;2024-01-25T07:22:42;94445.88;;;2.67;nan
16738;BME280;17906;47.684;10.806;2024-01-25T07:25:09;94438.03;;;2.74;nan
16738;BME280;17906;47.684;10.806;2024-01-25T07:27:35;94443.03;;;2.77;nan
16738;BME280;17906;47.684;10.806;2024-01-25T07:30:02;94445.03;;;2.75;nan
16738;BME280;17906;47.684;10.806;2024-01-25T07:32:30;94448.91;;;2.72;nan
16738;BME280;17906;47.684;10.806;2024-01-25T07:34:57;94457.25;;;2.77;nan
16738;BME280;17906;47.684;10.806;2024-01-25T07:37:24;94455.75;;;2.75;nan
16738;BME280;17906;47.684;10.806;2024-01-25T07:39:51;94457.59;;;2.74;nan
16738;BME280;17906;47.684;10.806;2024-01-25T07:42:17;94459.75;;;2.79;nan
16738;BME280;17906;47.684;10.806;2024-01-25T07:44:44;94452.22;;;2.82;nan
16738;BME280;17906;47.684;10.806;2024-01-25T07:47:11;94460.25;;;2.82;nan
16738;BME280;17906;47.684;10.806;2024-01-25T07:49:41;94468.97;;;2.76;nan
16738;BME280;17906;47.684;10.806;2024-01-25T07:52:07;94456.06;;;2.80;nan
16738;BME280;17906;47.684;10.806;2024-01-25T07:54:34;94472.47;;;2.77;nan
16738;BME280;17906;47.684;10.806;2024-01-25T07:57:00;94467.78;;;2.79;nan
16738;BME280;17906;47.684;10.806;2024-01-25T07:59:27;94461.09;;;2.83;nan
16738;BME280;17906;47.684;10.806;2024-01-25T08:01:54;94466.44;;;2.91;nan
16738;BME280;17906;47.684;10.806;2024-01-25T08:04:20;94464.28;;;2.78;nan
16738;BME280;17906;47.684;10.806;2024-01-25T08:06:48;94458.59;;;2.81;nan
16738;BME280;17906;47.684;10.806;2024-01-25T08:09:15;94467.13;;;2.85;nan
16738;BME280;17906;47.684;10.806;2024-01-25T08:11:42;94473.97;;;2.87;nan
16738;BME280;17906;47.684;10.806;2024-01-25T08:14:08;94490.88;;;2.88;nan
16738;BME280;17906;47.684;10.806;2024-01-25T08:16:36;94481.63;;;2.90;nan
16738;BME280;17906;47.684;10.806;2024-01-25T08:19:03;94481.63;;;2.90;nan
16738;BME280;17906;47.684;10.806;2024-01-25T08:21:29;94480.31;;;3.03;nan
16738;BME280;17906;47.684;10.806;2024-01-25T08:23:58;94482.28;;;3.01;nan
16738;BME280;17906;47.684;10.806;2024-01-25T08:26:24;94485.31;;;2.98;nan
16738;BME280;17906;47.684;10.806;2024-01-25T08:28:51;94480.97;;;3.05;nan
16738;BME280;17906;47.684;10.806;2024-01-25T08:31:18;94477.63;;;2.94;nan
16738;BME280;17906;47.684;10.806;2024-01-25T08:33:44;94483.34;;;2.91;nan
16738;BME280;17906;47.684;10.806;2024-01-25T08:36:12;94481.69;;;2.82;nan
16738;BME280;17906;47.684;10.806;2024-01-25T08:38:39;94477.00;;;2.76;nan
16738;BME280;17906;47.684;10.806;2024-01-25T08:41:07;94486.75;;;2.61;nan
16738;BME280;17906;47.684;10.806;2024-01-25T08:43:36;94494.59;;;2.54;nan
16738;BME280;17906;47.684;10.806;2024-01-25T08:46:03;94498.63;;;2.50;nan
16738;BME280;17906;47.684;10.806;2024-01-25T08:48:30;94487.56;;;2.45;nan
16738;BME280;17906;47.684;10.806;2024-01-25T08:50:56;94494.59;;;2.46;nan
16738;BME280;17906;47.684;10.806;2024-01-25T08:53:23;94493.28;;;2.50;nan
16738;BME280;17906;47.684;10.806;2024-01-25T08:55:52;94505.81;;;2.42;nan
16738;BME280;17906;47.684;10.806;2024-01-25T08:58:20;94509.16;;;2.44;nan
16738;BME280;17906;47.684;10.806;2024-01-25T09:00:47;94510.16;;;2.51;nan
16738;BME280;17906;47.684;10.806;2024-01-25T09:03:14;94507.66;;;2.49;nan
16738;BME280;17906;47.684;10.806;2024-01-25T09:05:40;94499.13;;;2.54;nan
16738;BME280;17906;47.684;10.806;2024-01-25T09:08:11;94488.06;;;2.57;nan
16738;BME280;17906;47.684;10.806;2024-01-25T09:10:37;94486.56;;;2.62;nan
16738;BME280;17906;47.684;10.806;2024-01-25T09:13:04;94494.41;;;2.64;nan
16738;BME280;17906;47.684;10.806;2024-01-25T09:15:32;94510.47;;;2.72;nan
16738;BME280;17906;47.684;10.806;2024-01-25T09:17:59;94518.00;;;2.77;nan
16738;BME280;17906;47.684;10.806;2024-01-25T09:20:25;94532.03;;;2.87;nan
16738;BME280;17906;47.684;10.806;2024-01-25T09:22:52;94531.03;;;2.96;nan
16738;BME280;17906;47.684;10.806;2024-01-25T09:25:20;94525.31;;;3.15;nan
16738;BME280;17906;47.684;10.806;2024-01-25T09:27:47;94534.16;;;3.24;nan
16738;BME280;17906;47.684;10.806;2024-01-25T09:30:14;94524.75;;;3.36;nan
16738;BME280;17906;47.684;10.806;2024-01-25T09:32:42;94519.31;;;3.44;nan
16738;BME280;17906;47.684;10.806;2024-01-25T09:35:09;94517.44;;;3.53;nan
16738;BME280;17906;47.684;10.806;2024-01-25T09:37:36;94525.00;;;3.58;nan
16738;BME280;17906;47.684;10.806;2024-01-25T09:40:03;94516.59;;;3.69;nan
16738;BME280;17906;47.684;10.806;2024-01-25T09:42:30;94529.34;;;3.59;nan
16738;BME280;17906;47.684;10.806;2024-01-25T09:44:57;94531.38;;;3.57;nan
16738;BME280;17906;47.684;10.806;2024-01-25T09:47:23;94540.25;;;3.57;nan
16738;BME280;17906;47.684;10.806;2024-01-25T09:49:51;94553.47;;;3.59;nan
16738;BME280;17906;47.684;10.806;2024-01-25T09:52:19;94548.78;;;3.69;nan
16738;BME280;17906;47.684;10.806;2024-01-25T09:54:52;94548.09;;;3.67;nan
16738;BME280;17906;47.684;10.806;2024-01-25T09:57:21;94546.09;;;3.69;nan
16738;BME280;17906;47.684;10.806;2024-01-25T09:59:49;94546.75;;;3.71;nan
16738;BME280;17906;47.684;10.806;2024-01-25T10:02:16;94544.06;;;3.71;nan
16738;BME280;17906;47.684;10.806;2024-01-25T10:04:48;94543.66;;;3.90;nan
16738;BME280;17906;47.684;10.806;2024-01-25T10:07:17;94543.53;;;3.75;nan
16738;BME280;17906;47.684;10.806;2024-01-25T10:09:43;94557.13;;;3.74;nan
16738;BME280;17906;47.684;10.806;2024-01-25T10:12:10;94541.97;;;3.89;nan
16738;BME280;17906;47.684;10.806;2024-01-25T10:14:36;94550.03;;;3.89;nan
16738;BME280;17906;47.684;10.806;2024-01-25T10:17:04;94543.47;;;3.92;nan
16738;BME280;17906;47.684;10.806;2024-01-25T10:19:31;94536.91;;;3.94;nan
16738;BME280;17906;47.684;10.806;2024-01-25T10:21:58;94544.41;;;3.99;nan
16738;BME280;17906;47.684;10.806;2024-01-25T10:24:27;94544.13;;;3.94;nan
16738;BME280;17906;47.684;10.806;2024-01-25T10:26:54;94542.63;;;3.91;nan
16738;BME280;17906;47.684;10.806;2024-01-25T10:29:21;94542.44;;;3.93;nan
16738;BME280;17906;47.684;10.806;2024-01-25T10:31:48;94541.88;;;4.05;nan
16738;BME280;17906;47.684;10.806;2024-01-25T10:34:15;94543.34;;;4.08;nan
16738;BME280;17906;47.684;10.806;2024-01-25T10:36:42;94547.06;;;4.07;nan
16738;BME280;17906;47.684;10.806;2024-01-25T10:39:10;94539.72;;;4.01;nan
16738;BME280;17906;47.684;10.806;2024-01-25T10:41:42;94529.63;;;3.80;nan
16738;BME280;17906;47.684;10.806;2024-01-25T10:44:10;94532.50;;;3.70;nan
16738;BME280;17906;47.684;10.806;2024-01-25T10:46:37;94531.00;;;3.60;nan
16738;BME280;17906;47.684;10.806;2024-01-25T10:49:05;94536.22;;;3.61;nan
16738;BME280;17906;47.684;10.806;2024-01-25T10:51:34;94530.66;;;3.71;nan
16738;BME280;17906;47.684;10.806;2024-01-25T10:54:01;94525.91;;;3.81;nan
16738;BME280;17906;47.684;10.806;2024-01-25T10:56:30;94517.88;;;3.81;nan
16738;BME280;17906;47.684;10.806;2024-01-25T10:58:59;94510.31;;;3.85;nan
16738;BME280;17906;47.684;10.806;2024-01-25T11:01:27;94511.13;;;3.85;nan
16738;BME280;17906;47.684;10.806;2024-01-25T11:03:53;94504.44;;;3.89;nan
16738;BME280;17906;47.684;10.806;2024-01-25T11:06:21;94487.50;;;3.89;nan
16738;BME280;17906;47.684;10.806;2024-01-25T11:08:48;94495.75;;;3.79;nan
16738;BME280;17906;47.684;10.806;2024-01-25T11:11:15;94492.88;;;3.89;nan
16738;BME280;17906;47.684;10.806;2024-01-25T11:13:42;94495.44;;;4.05;nan
16738;BME280;17906;47.684;10.806;2024-01-25T11:16:17;94487.44;;;4.20;nan
16738;BME280;17906;47.684;10.806;2024-01-25T11:18:49;94488.94;;;4.22;nan
16738;BME280;17906;47.684;10.806;2024-01-25T11:21:25;94473.34;;;4.41;nan
16738;BME280;17906;47.684;10.806;2024-01-25T11:23:59;94457.66;;;4.52;nan
16738;BME280;17906;47.684;10.806;2024-01-25T11:26:26;94461.84;;;4.55;nan
16738;BME280;17906;47.684;10.806;2024-01-25T11:28:52;94449.72;;;4.59;nan
16738;BME280;17906;47.684;10.806;2024-01-25T11:31:21;94455.22;;;4.43;nan
16738;BME280;17906;47.684;10.806;2024-01-25T11:33:48;94453.44;;;4.35;nan
16738;BME280;17906;47.684;10.806;2024-01-25T11:36:15;94460.13;;;4.39;nan
16738;BME280;17906;47.684;10.806;2024-01-25T11:38:41;94457.75;;;4.44;nan
16738;BME280;17906;47.684;10.806;2024-01-25T11:41:08;94456.81;;;4.52;nan
16738;BME280;17906;47.684;10.806;2024-01-25T11:43:35;94447.84;;;4.45;nan
16738;BME280;17906;47.684;10.806;2024-01-25T11:46:01;94437.31;;;4.58;nan
16738;BME280;17906;47.684;10.806;2024-01-25T11:48:30;94450.28;;;4.54;nan
16738;BME280;17906;47.684;10.806;2024-01-25T11:50:58;94447.09;;;4.51;nan
16738;BME280;17906;47.684;10.806;2024-01-25T11:53:24;94438.69;;;4.54;nan
16738;BME280;17906;47.684;10.806;2024-01-25T11:55:52;94426.69;;;4.42;nan
16738;BME280;17906;47.684;10.806;2024-01-25T11:58:20;94421.31;;;4.42;nan
16738;BME280;17906;47.684;10.806;2024-01-25T12:00:46;94426.59;;;4.35;nan
16738;BME280;17906;47.684;10.806;2024-01-25T12:03:14;94428.09;;;4.37;nan
16738;BME280;17906;47.684;10.806;2024-01-25T12:05:42;94415.13;;;4.41;nan
16738;BME280;17906;47.684;10.806;2024-01-25T12:08:12;94418.38;;;4.51;nan
16738;BME280;17906;47.684;10.806;2024-01-25T12:10:39;94411.53;;;4.49;nan
16738;BME280;17906;47.684;10.806;2024-01-25T12:13:07;94397.34;;;4.40;nan
16738;BME280;17906;47.684;10.806;2024-01-25T12:15:34;94391.25;;;4.46;nan
16738;BME280;17906;47.684;10.806;2024-01-25T12:18:01;94390.06;;;4.49;nan
16738;BME280;17906;47.684;10.806;2024-01-25T12:20:28;94386.53;;;4.48;nan
16738;BME280;17906;47.684;10.806;2024-01-25T12:22:58;94384.50;;;4.50;nan
16738;BME280;17906;47.684;10.806;2024-01-25T12:25:24;94379.97;;;4.51;nan
16738;BME280;17906;47.684;10.806;2024-01-25T12:27:53;94377.09;;;4.52;nan
16738;BME280;17906;47.684;10.806;2024-01-25T12:30:20;94369.88;;;4.53;nan
16738;BME280;17906;47.684;10.806;2024-01-25T12:32:48;94374.91;;;4.56;nan
16738;BME280;17906;47.684;10.806;2024-01-25T12:35:14;94368.88;;;4.54;nan
16738;BME280;17906;47.684;10.806;2024-01-25T12:37:41;94356.91;;;4.42;nan
16738;BME280;17906;47.684;10.806;2024-01-25T12:40:09;94371.31;;;4.26;nan
16738;BME280;17906;47.684;10.806;2024-01-25T12:42:36;94364.66;;;4.22;nan
16738;BME280;17906;47.684;10.806;2024-01-25T12:45:03;94367.34;;;4.22;nan
16738;BME280;17906;47.684;10.806;2024-01-25T12:47:30;94356.88;;;4.27;nan
16738;BME280;17906;47.684;10.806;2024-01-25T12:49:56;94369.19;;;4.21;nan
16738;BME280;17906;47.684;10.806;2024-01-25T12:52:23;94357.78;;;4.19;nan
16738;BME280;17906;47.684;10.806;2024-01-25T12:54:50;94370.38;;;4.19;nan
16738;BME280;17906;47.684;10.806;2024-01-25T12:57:18;94369.53;;;4.18;nan
16738;BME280;17906;47.684;10.806;2024-01-25T12:59:45;94370.28;;;4.12;nan
16738;BME280;17906;47.684;10.806;2024-01-25T13:02:12;94367.94;;;4.09;nan
16738;BME280;17906;47.684;10.806;2024-01-25T13:04:39;94371.13;;;4.13;nan
16738;BME280;17906;47.684;10.806;2024-01-25T13:07:05;94363.91;;;4.13;nan
16738;BME280;17906;47.684;10.806;2024-01-25T13:09:32;94369.44;;;4.12;nan
16738;BME280;17906;47.684;10.806;2024-01-25T13:12:01;94363.91;;;4.28;nan
16738;BME280;17906;47.684;10.806;2024-01-25T13:14:30;94374.00;;;4.26;nan
16738;BME280;17906;47.684;10.806;2024-01-25T13:16:56;94358.47;;;4.21;nan
16738;BME280;17906;47.684;10.806;2024-01-25T13:19:23;94357.69;;;4.13;nan
16738;BME280;17906;47.684;10.806;2024-01-25T13:21:50;94366.59;;;4.13;nan